createdAt,value
2023-02-07T00:00:41.198Z,102734.25
2023-02-07T00:03:44.723Z,102730.00
2023-02-07T00:06:47.512Z,102738.50
2023-02-07T00:09:50.954Z,102739.28
2023-02-07T00:12:54.116Z,102745.13
2023-02-07T00:15:56.957Z,102745.06
2023-02-07T00:19:00.464Z,102755.37
2023-02-07T00:22:03.920Z,102749.50
2023-02-07T00:25:06.862Z,102755.50
2023-02-07T00:28:12.794Z,102762.25
2023-02-07T00:31:19.466Z,102758.78
2023-02-07T00:34:22.311Z,102755.34
2023-02-07T00:37:25.046Z,102750.94
2023-02-07T00:40:28.780Z,102748.31
2023-02-07T00:43:31.975Z,102756.03
2023-02-07T00:46:35.929Z,102753.44
2023-02-07T00:49:38.765Z,102756.88
2023-02-07T00:52:44.514Z,102758.59
2023-02-07T00:55:47.442Z,102757.69
2023-02-07T00:58:51.076Z,102749.16
2023-02-07T01:01:53.979Z,102749.16
2023-02-07T01:04:56.968Z,102736.31
2023-02-07T01:07:59.967Z,102741.34
2023-02-07T01:11:09.276Z,102733.59
2023-02-07T01:14:13.093Z,102730.22
2023-02-07T01:17:18.859Z,102723.38
2023-02-07T01:20:25.162Z,102703.69
2023-02-07T01:23:28.010Z,102739.69
2023-02-07T01:26:30.961Z,102749.94
2023-02-07T01:29:37.051Z,102743.19
2023-02-07T01:32:43.035Z,102740.53
2023-02-07T01:35:47.339Z,102729.38
2023-02-07T01:38:52.403Z,102719.13
2023-02-07T01:41:55.273Z,102725.03
2023-02-07T01:45:16.902Z,102721.63
2023-02-07T01:48:31.816Z,102713.84
2023-02-07T01:51:35.650Z,102718.91
2023-02-07T01:54:38.835Z,102717.16
2023-02-07T01:57:41.920Z,102712.00
2023-02-07T02:00:45.506Z,102711.16
2023-02-07T02:03:50.057Z,102706.03
2023-02-07T02:06:53.351Z,102703.47
2023-02-07T02:09:56.189Z,102695.06
2023-02-07T02:13:06.543Z,102701.09
2023-02-07T02:16:15.486Z,102696.81
2023-02-07T02:20:06.313Z,102696.69
2023-02-07T02:23:20.977Z,102685.53
2023-02-07T02:26:35.068Z,102688.06
2023-02-07T02:29:49.041Z,102682.12
2023-02-07T02:33:10.406Z,102684.72
2023-02-07T02:36:35.163Z,102663.41
2023-02-07T02:40:17.141Z,102700.00
2023-02-07T02:43:36.139Z,102703.38
2023-02-07T02:46:40.458Z,102695.53
2023-02-07T02:49:44.795Z,102690.53
2023-02-07T02:52:50.903Z,102692.22
2023-02-07T02:56:15.822Z,102683.53
2023-02-07T02:59:49.754Z,102677.53
2023-02-07T03:03:16.100Z,102661.34
2023-02-07T03:06:34.097Z,102704.94
2023-02-07T03:10:09.185Z,102709.28
2023-02-07T03:13:16.360Z,102719.31
2023-02-07T03:16:34.340Z,102720.09
2023-02-07T03:19:50.255Z,102714.97
2023-02-07T03:22:53.852Z,102706.59
2023-02-07T03:25:58.792Z,102713.22
2023-02-07T03:29:04.086Z,102721.53
2023-02-07T03:32:11.323Z,102719.72
2023-02-07T03:35:26.329Z,102705.25
2023-02-07T03:38:29.255Z,102706.16
2023-02-07T03:41:42.685Z,102686.66
2023-02-07T03:44:45.859Z,102681.56
2023-02-07T03:47:49.437Z,102695.19
2023-02-07T03:50:53.196Z,102699.50
2023-02-07T03:53:59.369Z,102714.87
2023-02-07T03:57:02.734Z,102679.00
2023-02-07T04:00:07.314Z,102703.88
2023-02-07T04:03:18.794Z,102697.03
2023-02-07T04:06:23.211Z,102690.03
2023-02-07T04:09:28.829Z,102690.00
2023-02-07T04:12:34.584Z,102640.53
2023-02-07T04:15:38.401Z,102675.53
2023-02-07T04:18:41.548Z,102693.34
2023-02-07T04:21:48.166Z,102698.47
2023-02-07T04:24:51.021Z,102707.03
2023-02-07T04:27:56.887Z,102697.69
2023-02-07T04:30:59.865Z,102692.66
2023-02-07T04:34:02.690Z,102697.81
2023-02-07T04:37:05.659Z,102702.91
2023-02-07T04:40:08.883Z,102708.84
2023-02-07T04:43:23.640Z,102702.91
2023-02-07T04:46:30.524Z,102715.59
2023-02-07T04:49:34.559Z,102727.47
2023-02-07T04:52:37.905Z,102727.41
2023-02-07T04:55:40.910Z,102721.47
2023-02-07T04:58:44.133Z,102731.69
2023-02-07T05:01:47.466Z,102730.72
2023-02-07T05:04:50.383Z,102738.31
2023-02-07T05:07:53.349Z,102744.28
2023-02-07T05:11:02.479Z,102752.84
2023-02-07T05:14:05.333Z,102752.00
2023-02-07T05:17:12.002Z,102754.63
2023-02-07T05:20:14.937Z,102753.69
2023-02-07T05:23:18.355Z,102763.06
2023-02-07T05:26:21.214Z,102767.25
2023-02-07T05:29:24.238Z,102756.09
2023-02-07T05:32:45.583Z,102763.75
2023-02-07T05:35:48.579Z,102759.50
2023-02-07T05:38:54.568Z,102768.87
2023-02-07T05:41:57.298Z,102757.88
2023-02-07T05:45:00.251Z,102765.56
2023-02-07T05:48:09.176Z,102761.38
2023-02-07T05:51:12.985Z,102761.38
2023-02-07T05:54:18.765Z,102769.94
2023-02-07T05:57:21.589Z,102774.00
2023-02-07T06:00:24.640Z,102768.78
2023-02-07T06:03:33.730Z,102767.88
2023-02-07T06:06:39.493Z,102765.22
2023-02-07T06:09:45.239Z,102769.41
2023-02-07T06:12:48.049Z,102736.88
2023-02-07T06:15:50.913Z,102766.91
2023-02-07T06:18:56.962Z,102766.84
2023-02-07T06:22:02.748Z,102766.00
2023-02-07T06:25:05.871Z,102718.19
2023-02-07T06:28:09.157Z,102773.09
2023-02-07T06:31:13.004Z,102774.03
2023-02-07T06:34:19.115Z,102768.19
2023-02-07T06:37:21.831Z,102771.66
2023-02-07T06:40:25.366Z,102769.19
2023-02-07T06:43:28.134Z,102778.66
2023-02-07T06:46:31.526Z,102777.97
2023-02-07T06:49:35.059Z,102761.09
2023-02-07T06:52:37.970Z,102764.56
2023-02-07T06:55:41.019Z,102756.19
2023-02-07T06:58:53.329Z,102761.38
2023-02-07T07:02:00.763Z,102770.09
2023-02-07T07:05:04.140Z,102768.56
2023-02-07T07:08:07.679Z,102762.88
2023-02-07T07:11:10.575Z,102766.44
2023-02-07T07:14:13.396Z,102772.56
2023-02-07T07:17:19.355Z,102766.78
2023-02-07T07:20:23.529Z,102773.81
2023-02-07T07:23:27.073Z,102776.78
2023-02-07T07:26:47.861Z,102773.47
2023-02-07T07:29:54.987Z,102780.50
2023-02-07T07:32:57.759Z,102767.84
2023-02-07T07:36:01.763Z,102771.31
2023-02-07T07:39:05.466Z,102772.22
2023-02-07T07:42:08.397Z,102776.53
2023-02-07T07:45:11.267Z,102774.78
2023-02-07T07:48:17.407Z,102769.63
2023-02-07T07:51:20.471Z,102765.28
2023-02-07T07:54:23.622Z,102761.81
2023-02-07T07:57:32.788Z,102764.31
2023-02-07T08:00:39.430Z,102767.66
2023-02-07T08:03:42.424Z,102765.03
2023-02-07T08:06:46.079Z,102758.97
2023-02-07T08:09:48.904Z,102755.50
2023-02-07T08:12:51.769Z,102755.47
2023-02-07T08:15:55.503Z,102763.09
2023-02-07T08:18:58.367Z,102765.56
2023-02-07T08:22:01.217Z,102768.94
2023-02-07T08:25:13.445Z,102761.87
2023-02-07T08:28:20.188Z,102748.94
2023-02-07T08:31:23.467Z,102748.78
2023-02-07T08:34:29.131Z,102755.56
2023-02-07T08:37:31.994Z,102752.94
2023-02-07T08:40:35.536Z,102751.97
2023-02-07T08:43:39.502Z,102749.19
2023-02-07T08:46:42.870Z,102761.06
2023-02-07T08:49:45.795Z,102771.25
2023-02-07T08:52:48.600Z,102767.62
2023-02-07T08:55:52.193Z,102759.72
2023-02-07T08:58:55.048Z,102757.06
2023-02-07T09:02:07.757Z,102756.97
2023-02-07T09:05:12.538Z,102758.41
2023-02-07T09:08:15.567Z,102760.16
2023-02-07T09:11:18.788Z,102752.16
2023-02-07T09:14:22.355Z,102748.25
2023-02-07T09:17:25.333Z,102747.19
2023-02-07T09:20:29.854Z,102737.41
2023-02-07T09:23:37.209Z,102736.22
2023-02-07T09:26:45.862Z,102741.75
2023-02-07T09:29:49.222Z,102734.56
2023-02-07T09:32:53.449Z,102733.62
2023-02-07T09:35:59.469Z,102731.06
2023-02-07T09:39:03.950Z,102731.75
2023-02-07T09:42:43.721Z,102714.22
2023-02-07T09:45:49.283Z,102720.59
2023-02-07T09:49:18.452Z,102727.97
2023-02-07T09:52:31.772Z,102724.03
2023-02-07T09:55:50.460Z,102724.34
2023-02-07T09:59:24.180Z,102727.69
2023-02-07T10:02:34.964Z,102726.78
2023-02-07T10:05:46.352Z,102724.59
2023-02-07T10:08:52.750Z,102716.25
2023-02-07T10:12:28.801Z,102719.09
2023-02-07T10:15:43.382Z,102713.75
2023-02-07T10:19:09.957Z,102714.41
2023-02-07T10:22:42.069Z,102712.66
2023-02-07T10:26:12.550Z,102711.84
2023-02-07T10:29:26.367Z,102692.06
2023-02-07T10:32:34.129Z,102699.25
2023-02-07T10:35:37.555Z,102701.37
2023-02-07T10:38:50.257Z,102707.84
2023-02-07T10:42:00.220Z,102700.87
2023-02-07T10:45:05.580Z,102694.91
2023-02-07T10:48:20.070Z,102692.47
2023-02-07T10:51:36.977Z,102685.44
2023-02-07T10:54:54.762Z,102680.53
2023-02-07T10:58:08.538Z,102673.63
2023-02-07T11:01:24.195Z,102663.31
2023-02-07T11:04:38.980Z,102668.31
2023-02-07T11:07:47.940Z,102676.38
2023-02-07T11:10:56.078Z,102671.03
2023-02-07T11:14:05.446Z,102666.44
2023-02-07T11:17:08.365Z,102657.03
2023-02-07T11:20:21.443Z,102650.13
2023-02-07T11:23:24.498Z,102657.97
2023-02-07T11:26:32.072Z,102650.63
2023-02-07T11:29:41.807Z,102642.09
2023-02-07T11:32:58.143Z,102644.28
2023-02-07T11:36:12.762Z,102638.34
2023-02-07T11:39:19.798Z,102618.69
2023-02-07T11:42:26.239Z,102629.91
2023-02-07T11:45:34.713Z,102636.22
2023-02-07T11:48:40.356Z,102641.53
2023-02-07T11:51:46.478Z,102639.91
2023-02-07T11:54:53.561Z,102643.37
2023-02-07T11:58:07.696Z,102637.16
2023-02-07T12:01:18.028Z,102629.25
2023-02-07T12:04:28.059Z,102636.19
2023-02-07T12:07:39.423Z,102626.59
2023-02-07T12:10:46.298Z,102613.97
2023-02-07T12:14:02.275Z,102623.37
2023-02-07T12:17:10.148Z,102627.28
2023-02-07T12:20:39.650Z,102617.91
2023-02-07T12:24:01.177Z,102609.13
2023-02-07T12:27:16.047Z,102604.44
2023-02-07T12:30:39.785Z,102595.28
2023-02-07T12:33:49.204Z,102597.19
2023-02-07T12:36:56.921Z,102594.09
2023-02-07T12:40:21.809Z,102591.19
2023-02-07T12:43:27.702Z,102590.13
2023-02-07T12:46:50.537Z,102590.53
2023-02-07T12:50:02.500Z,102592.03
2023-02-07T12:53:22.501Z,102597.38
2023-02-07T12:56:36.394Z,102595.00
2023-02-07T13:00:06.466Z,102596.47
2023-02-07T13:03:42.547Z,102597.50
2023-02-07T13:07:15.098Z,102593.13
2023-02-07T13:10:41.512Z,102587.41
2023-02-07T13:14:05.114Z,102585.81
2023-02-07T13:17:32.926Z,102579.66
2023-02-07T13:20:51.938Z,102582.66
2023-02-07T13:24:01.487Z,102582.37
2023-02-07T13:27:08.451Z,102582.81
2023-02-07T13:30:17.096Z,102588.38
2023-02-07T13:33:39.423Z,102584.34
2023-02-07T13:36:49.444Z,102592.97
2023-02-07T13:40:06.369Z,102587.28
2023-02-07T13:43:21.246Z,102586.44
2023-02-07T13:46:45.797Z,102585.38
2023-02-07T13:50:12.643Z,102584.34
2023-02-07T13:53:37.436Z,102592.50
2023-02-07T13:57:15.043Z,102575.69
2023-02-07T14:00:21.186Z,102546.91
2023-02-07T14:03:33.255Z,102569.75
2023-02-07T14:06:41.206Z,102566.59
2023-02-07T14:09:48.511Z,102566.75
2023-02-07T14:12:54.488Z,102574.22
2023-02-07T14:16:01.626Z,102578.47
2023-02-07T14:19:04.721Z,102567.66
2023-02-07T14:22:30.492Z,102560.34
2023-02-07T14:25:36.697Z,102558.66
2023-02-07T14:28:39.874Z,102557.53
2023-02-07T14:32:22.395Z,102563.75
2023-02-07T14:35:28.132Z,102552.50
2023-02-07T14:38:38.159Z,102553.84
2023-02-07T14:41:43.350Z,102562.88
2023-02-07T14:44:50.125Z,102552.66
2023-02-07T14:47:53.094Z,102550.97
2023-02-07T14:50:56.120Z,102558.25
2023-02-07T14:54:23.950Z,102551.94
2023-02-07T14:57:36.189Z,102560.75
2023-02-07T15:00:45.402Z,102561.38
2023-02-07T15:04:06.170Z,102563.06
2023-02-07T15:07:13.493Z,102564.66
2023-02-07T15:10:27.789Z,102572.50
2023-02-07T15:13:34.379Z,102581.12
2023-02-07T15:16:40.386Z,102571.84
2023-02-07T15:19:43.218Z,102589.31
2023-02-07T15:22:50.705Z,102567.25
2023-02-07T15:25:53.696Z,102574.50
2023-02-07T15:29:02.257Z,102569.06
2023-02-07T15:32:24.497Z,102563.50
2023-02-07T15:35:30.093Z,102577.28
2023-02-07T15:38:33.428Z,102576.97
2023-02-07T15:41:39.129Z,102587.44
2023-02-07T15:44:56.562Z,102585.44
2023-02-07T15:48:03.411Z,102583.44
2023-02-07T15:51:11.265Z,102581.50
2023-02-07T15:54:16.503Z,102587.47
2023-02-07T15:57:26.483Z,102580.78
2023-02-07T16:00:32.097Z,102591.53
2023-02-07T16:03:37.870Z,102596.66
2023-02-07T16:06:55.194Z,102593.09
2023-02-07T16:10:24.039Z,102599.78
2023-02-07T16:13:26.881Z,102603.91
2023-02-07T16:16:36.187Z,102606.91
2023-02-07T16:19:46.441Z,102612.47
2023-02-07T16:22:50.187Z,102607.97
2023-02-07T16:25:53.374Z,102609.44
2023-02-07T16:28:56.644Z,102610.59
2023-02-07T16:31:59.800Z,102610.03
2023-02-07T16:35:02.817Z,102609.41
2023-02-07T16:38:06.437Z,102609.81
2023-02-07T16:41:33.137Z,102613.56
2023-02-07T16:44:37.275Z,102614.56
2023-02-07T16:47:40.050Z,102620.16
2023-02-07T16:50:43.377Z,102619.59
2023-02-07T16:53:46.116Z,102619.16
2023-02-07T16:56:51.755Z,102615.97
2023-02-07T16:59:54.476Z,102610.91
2023-02-07T17:02:58.377Z,102613.75
2023-02-07T17:06:01.272Z,102609.84
2023-02-07T17:09:04.718Z,102621.22
2023-02-07T17:12:09.220Z,102623.19
2023-02-07T17:15:12.382Z,102620.88
2023-02-07T17:18:15.279Z,102615.94
2023-02-07T17:21:18.442Z,102622.06
2023-02-07T17:24:21.457Z,102620.56
2023-02-07T17:27:24.409Z,102619.97
2023-02-07T17:30:38.860Z,102623.97
2023-02-07T17:33:41.890Z,102617.28
2023-02-07T17:36:47.769Z,102622.50
2023-02-07T17:39:54.417Z,102620.81
2023-02-07T17:42:57.862Z,102629.50
2023-02-07T17:46:01.999Z,102636.41
2023-02-07T17:49:06.538Z,102629.59
2023-02-07T17:52:15.476Z,102642.47
2023-02-07T17:55:21.552Z,102655.47
2023-02-07T17:58:24.912Z,102645.16
2023-02-07T18:01:28.310Z,102656.28
2023-02-07T18:04:31.419Z,102643.50
2023-02-07T18:07:34.119Z,102654.63
2023-02-07T18:10:39.694Z,102652.94
2023-02-07T18:13:46.109Z,102657.34
2023-02-07T18:16:49.436Z,102656.63
2023-02-07T18:19:52.610Z,102649.78
2023-02-07T18:22:57.223Z,102667.00
2023-02-07T18:26:00.952Z,102666.28
2023-02-07T18:29:04.092Z,102663.03
2023-02-07T18:32:08.297Z,102663.87
2023-02-07T18:35:12.113Z,102662.28
2023-02-07T18:38:15.838Z,102663.28
2023-02-07T18:41:23.598Z,102662.47
2023-02-07T18:44:27.033Z,102667.72
2023-02-07T18:47:31.985Z,102660.94
2023-02-07T18:50:35.433Z,102667.06
2023-02-07T18:53:39.538Z,102664.53
2023-02-07T18:56:42.861Z,102662.03
2023-02-07T18:59:45.691Z,102661.25
2023-02-07T19:02:49.240Z,102672.44
2023-02-07T19:05:57.671Z,102674.19
2023-02-07T19:09:03.787Z,102676.78
2023-02-07T19:12:09.243Z,102676.78
2023-02-07T19:15:13.062Z,102675.97
2023-02-07T19:18:16.340Z,102682.00
2023-02-07T19:21:24.070Z,102688.91
2023-02-07T19:24:27.960Z,102695.00
2023-02-07T19:27:30.845Z,102703.56
2023-02-07T19:30:34.252Z,102700.13
2023-02-07T19:33:37.295Z,102699.25
2023-02-07T19:36:41.429Z,102696.72
2023-02-07T19:39:46.367Z,102694.19
2023-02-07T19:42:49.745Z,102692.47
2023-02-07T19:45:53.887Z,102684.75
2023-02-07T19:48:58.943Z,102692.38
2023-02-07T19:52:01.940Z,102689.84
2023-02-07T19:55:05.308Z,102684.75
2023-02-07T19:58:08.689Z,102690.75
2023-02-07T20:01:12.718Z,102684.69
2023-02-07T20:04:15.832Z,102705.19
2023-02-07T20:07:19.083Z,102700.03
2023-02-07T20:10:22.567Z,102699.19
2023-02-07T20:13:25.669Z,102705.19
2023-02-07T20:16:31.662Z,102704.41
2023-02-07T20:19:35.874Z,102702.72
2023-02-07T20:22:39.003Z,102695.88
2023-02-07T20:25:42.354Z,102700.97
2023-02-07T20:28:46.486Z,102699.28
2023-02-07T20:31:50.175Z,102708.69
2023-02-07T20:34:53.388Z,102703.63
2023-02-07T20:37:57.196Z,102694.28
2023-02-07T20:41:08.987Z,102709.66
2023-02-07T20:44:14.991Z,102693.41
2023-02-07T20:47:18.039Z,102707.13
2023-02-07T20:50:22.360Z,102713.97
2023-02-07T20:53:25.504Z,102715.75
2023-02-07T20:56:29.017Z,102724.31
2023-02-07T20:59:33.051Z,102724.34
2023-02-07T21:02:37.149Z,102724.31
2023-02-07T21:05:40.116Z,102726.88
2023-02-07T21:08:43.305Z,102725.19
2023-02-07T21:11:49.203Z,102723.50
2023-02-07T21:14:52.213Z,102733.78
2023-02-07T21:17:54.984Z,102733.78
2023-02-07T21:20:58.225Z,102724.38
2023-02-07T21:24:01.401Z,102733.78
2023-02-07T21:27:05.356Z,102737.19
2023-02-07T21:30:09.013Z,102739.75
2023-02-07T21:33:15.568Z,102739.75
2023-02-07T21:36:25.810Z,102743.19
2023-02-07T21:39:28.871Z,102741.44
2023-02-07T21:42:32.172Z,102735.44
2023-02-07T21:45:35.220Z,102744.87
2023-02-07T21:48:39.453Z,102740.56
2023-02-07T21:51:43.715Z,102753.38
2023-02-07T21:54:46.554Z,102754.22
2023-02-07T21:57:49.431Z,102749.94
2023-02-07T22:00:55.218Z,102749.09
2023-02-07T22:03:59.931Z,102757.59
2023-02-07T22:07:02.765Z,102754.19
2023-02-07T22:10:05.805Z,102759.31
2023-02-07T22:13:12.970Z,102756.75
2023-02-07T22:16:17.397Z,102761.00
2023-02-07T22:19:21.028Z,102756.69
2023-02-07T22:22:23.875Z,102760.91
2023-02-07T22:25:26.640Z,102764.25
2023-02-07T22:28:30.055Z,102753.22
2023-02-07T22:31:35.733Z,102753.22
2023-02-07T22:34:41.070Z,102757.50
2023-02-07T22:37:43.810Z,102753.19
2023-02-07T22:40:46.749Z,102765.97
2023-02-07T22:43:49.672Z,102760.00
2023-02-07T22:46:52.528Z,102763.41
2023-02-07T22:49:55.298Z,102769.37
2023-02-07T22:52:58.540Z,102769.37
2023-02-07T22:56:02.044Z,102771.09
2023-02-07T22:59:05.749Z,102771.06
2023-02-07T23:02:08.821Z,102763.34
2023-02-07T23:05:12.224Z,102768.31
2023-02-07T23:08:14.962Z,102770.03
2023-02-07T23:11:19.894Z,102765.81
2023-02-07T23:14:22.747Z,102765.81
2023-02-07T23:17:26.479Z,102774.34
2023-02-07T23:20:29.923Z,102775.22
2023-02-07T23:23:32.747Z,102761.50
2023-02-07T23:26:35.614Z,102763.16
2023-02-07T23:29:40.413Z,102753.72
2023-02-07T23:32:43.316Z,102748.56
2023-02-07T23:35:46.026Z,102757.06
2023-02-07T23:38:49.450Z,102766.38
2023-02-07T23:41:52.206Z,102735.56
2023-02-07T23:44:54.961Z,102773.19
2023-02-07T23:47:58.527Z,102780.06
2023-02-07T23:51:03.743Z,102778.31
2023-02-07T23:54:06.454Z,102780.84
2023-02-07T23:57:09.189Z,102785.97
